Time;durP1;ratioP1;P1;durP2;ratioP2;P2;SDS_P1;SDS_P2;PMS_P1;PMS_P2;Temp;Humidity;BMP_temperature;BMP_pressure;BME280_temperature;BME280_humidity;BME280_pressure;Samples;Min_cycle;Max_cycle;Signal;HPM_P1;HPM_P2
2024/04/15 00:00:11;;;;;;;2.63;1.00;;;;;;;;;;5483042;26;20585;-52
2024/04/15 00:02:36;;;;;;;2.47;0.98;;;;;;;;;;5483291;26;20002;-50
2024/04/15 00:05:02;;;;;;;3.17;1.00;;;;;;;;;;5482579;26;20043;-51
2024/04/15 00:07:28;;;;;;;3.13;1.15;;;;;;;;;;5483351;26;19998;-50
2024/04/15 00:09:53;;;;;;;3.75;1.02;;;;;;;;;;5481827;26;19995;-50
2024/04/15 00:12:18;;;;;;;2.00;0.93;;;;;;;;;;5480696;26;20457;-52
2024/04/15 00:14:44;;;;;;;3.95;1.33;;;;;;;;;;5483025;26;19998;-53
2024/04/15 00:17:10;;;;;;;3.35;0.80;;;;;;;;;;5475160;26;20003;-51
2024/04/15 00:19:36;;;;;;;2.42;0.88;;;;;;;;;;5480596;26;20548;-51
2024/04/15 00:22:01;;;;;;;3.80;0.73;;;;;;;;;;5482197;26;20014;-51
2024/04/15 00:24:27;;;;;;;1.67;0.70;;;;;;;;;;5483381;26;20013;-49
2024/04/15 00:26:52;;;;;;;2.80;0.80;;;;;;;;;;5483069;26;20021;-51
2024/04/15 00:29:17;;;;;;;3.20;0.90;;;;;;;;;;5482202;26;20035;-52
2024/04/15 00:31:43;;;;;;;2.15;0.80;;;;;;;;;;5482583;26;20002;-52
2024/04/15 00:34:08;;;;;;;2.42;0.82;;;;;;;;;;5482950;26;20689;-50
2024/04/15 00:36:35;;;;;;;2.22;0.93;;;;;;;;;;5482675;26;20006;-51
2024/04/15 00:39:00;;;;;;;3.22;1.05;;;;;;;;;;5481015;26;20040;-52
2024/04/15 00:41:26;;;;;;;4.00;1.25;;;;;;;;;;5484749;26;19998;-56
2024/04/15 00:43:51;;;;;;;1.77;0.70;;;;;;;;;;5482280;26;20002;-57
2024/04/15 00:46:17;;;;;;;3.08;1.13;;;;;;;;;;5480678;26;20002;-62
2024/04/15 00:48:42;;;;;;;2.28;0.90;;;;;;;;;;5482704;26;20006;-59
2024/04/15 00:51:08;;;;;;;2.30;0.90;;;;;;;;;;5482801;26;20013;-55
2024/04/15 00:53:33;;;;;;;2.38;0.82;;;;;;;;;;5479673;26;19994;-59
2024/04/15 00:56:01;;;;;;;2.15;1.00;;;;;;;;;;5480992;26;20010;-57
2024/04/15 00:58:26;;;;;;;2.53;0.90;;;;;;;;;;5480977;26;20016;-57
2024/04/15 01:00:52;;;;;;;4.82;1.10;;;;;;;;;;5483560;26;20471;-59
2024/04/15 01:03:18;;;;;;;3.13;0.90;;;;;;;;;;5481070;26;20453;-53
2024/04/15 01:05:43;;;;;;;5.57;1.15;;;;;;;;;;5484864;26;20034;-58
2024/04/15 01:08:08;;;;;;;2.38;0.73;;;;;;;;;;5485205;26;20573;-60
2024/04/15 01:10:34;;;;;;;3.17;0.93;;;;;;;;;;5485994;26;20018;-50
2024/04/15 01:12:59;;;;;;;2.38;0.93;;;;;;;;;;5484562;26;20013;-52
2024/04/15 01:15:25;;;;;;;2.20;0.70;;;;;;;;;;5485792;26;20466;-49
2024/04/15 01:17:50;;;;;;;2.45;0.75;;;;;;;;;;5485718;26;20009;-52
2024/04/15 01:20:16;;;;;;;2.40;0.85;;;;;;;;;;5485158;26;20664;-55
2024/04/15 01:23:13;;;;;;;2.15;0.70;;;;;;;;;;5485414;26;20009;-54
2024/04/15 01:25:39;;;;;;;1.67;0.70;;;;;;;;;;5483700;26;20005;-50
2024/04/15 01:28:05;;;;;;;1.08;0.57;;;;;;;;;;5485783;26;20026;-52
2024/04/15 01:30:30;;;;;;;2.85;0.75;;;;;;;;;;5484350;26;20902;-49
2024/04/15 01:32:57;;;;;;;2.08;0.98;;;;;;;;;;5484591;26;20124;-50
2024/04/15 01:35:23;;;;;;;3.05;0.80;;;;;;;;;;5485981;26;20009;-50
2024/04/15 01:37:49;;;;;;;2.92;0.85;;;;;;;;;;5485980;26;20426;-52
2024/04/15 01:40:15;;;;;;;0.90;0.55;;;;;;;;;;5484501;26;20005;-60
2024/04/15 01:42:40;;;;;;;1.65;0.70;;;;;;;;;;5474895;26;20041;-58
2024/04/15 01:45:06;;;;;;;2.17;0.63;;;;;;;;;;5484737;26;19994;-56
2024/04/15 01:47:31;;;;;;;3.05;0.85;;;;;;;;;;5480876;26;20685;-58
2024/04/15 01:49:57;;;;;;;3.70;1.17;;;;;;;;;;5485565;26;20074;-61
2024/04/15 01:52:22;;;;;;;1.17;0.70;;;;;;;;;;5485416;26;19998;-49
2024/04/15 01:54:47;;;;;;;2.03;0.80;;;;;;;;;;5484665;26;19998;-49
2024/04/15 01:57:13;;;;;;;1.67;0.63;;;;;;;;;;5484503;26;19994;-53
2024/04/15 01:59:38;;;;;;;2.40;0.70;;;;;;;;;;5484647;26;20002;-50
2024/04/15 02:02:03;;;;;;;1.92;0.70;;;;;;;;;;5485285;26;19998;-48
2024/04/15 02:04:29;;;;;;;3.15;0.80;;;;;;;;;;5483874;26;20008;-51
2024/04/15 02:06:54;;;;;;;1.30;0.60;;;;;;;;;;5485292;26;20006;-48
2024/04/15 02:09:20;;;;;;;1.88;0.90;;;;;;;;;;5484908;26;20434;-52
2024/04/15 02:11:45;;;;;;;1.60;0.68;;;;;;;;;;5481023;26;20850;-53
2024/04/15 02:14:11;;;;;;;2.05;0.70;;;;;;;;;;5484532;26;20030;-52
2024/04/15 02:16:36;;;;;;;1.67;0.68;;;;;;;;;;5485424;26;20438;-50
2024/04/15 02:19:01;;;;;;;1.80;0.85;;;;;;;;;;5484634;26;19999;-53
2024/04/15 02:21:27;;;;;;;1.83;0.60;;;;;;;;;;5484564;26;19998;-49
2024/04/15 02:23:52;;;;;;;1.73;0.80;;;;;;;;;;5485018;26;20070;-50
2024/04/15 02:26:18;;;;;;;2.33;0.70;;;;;;;;;;5484374;26;20569;-53
2024/04/15 02:28:43;;;;;;;2.47;1.00;;;;;;;;;;5484139;26;20021;-52
2024/04/15 02:31:08;;;;;;;1.90;0.70;;;;;;;;;;5485040;26;20071;-53
2024/04/15 02:33:33;;;;;;;2.47;0.70;;;;;;;;;;5485105;26;20006;-53
2024/04/15 02:35:59;;;;;;;1.73;0.77;;;;;;;;;;5483828;26;20009;-55
2024/04/15 02:38:24;;;;;;;2.45;0.70;;;;;;;;;;5484839;26;20002;-50
2024/04/15 02:40:50;;;;;;;2.28;0.80;;;;;;;;;;5484726;26;20002;-53
2024/04/15 02:43:16;;;;;;;1.65;0.80;;;;;;;;;;5484246;26;19998;-51
2024/04/15 02:45:41;;;;;;;2.45;0.88;;;;;;;;;;5484400;26;20002;-48
2024/04/15 02:48:07;;;;;;;2.10;0.73;;;;;;;;;;5483113;26;20002;-51
2024/04/15 02:50:32;;;;;;;2.30;0.77;;;;;;;;;;5484353;26;20441;-53
2024/04/15 02:52:57;;;;;;;2.78;0.80;;;;;;;;;;5484446;26;20326;-50
2024/04/15 02:55:23;;;;;;;1.73;0.63;;;;;;;;;;5484234;26;20682;-53
2024/04/15 02:57:48;;;;;;;1.10;0.60;;;;;;;;;;5483873;26;20307;-53
2024/04/15 03:00:14;;;;;;;4.50;0.70;;;;;;;;;;5483864;26;20353;-51
2024/04/15 03:02:40;;;;;;;2.13;0.68;;;;;;;;;;5484557;26;20054;-51
2024/04/15 03:05:05;;;;;;;2.92;0.85;;;;;;;;;;5483935;26;19998;-50
2024/04/15 03:07:31;;;;;;;3.30;0.70;;;;;;;;;;5478383;26;20017;-52
2024/04/15 03:09:57;;;;;;;2.08;0.70;;;;;;;;;;5484294;26;20093;-49
2024/04/15 03:12:22;;;;;;;2.40;0.77;;;;;;;;;;5484187;26;20006;-48
2024/04/15 03:14:48;;;;;;;2.45;0.70;;;;;;;;;;5482601;26;19994;-55
2024/04/15 03:17:13;;;;;;;1.92;0.80;;;;;;;;;;5483181;26;20051;-51
2024/04/15 03:19:38;;;;;;;2.35;0.70;;;;;;;;;;5484765;26;20026;-51
2024/04/15 03:22:04;;;;;;;1.88;0.47;;;;;;;;;;5483194;26;20382;-55
2024/04/15 03:24:29;;;;;;;2.50;0.75;;;;;;;;;;5483671;26;20078;-51
2024/04/15 03:26:55;;;;;;;3.88;0.70;;;;;;;;;;5483312;26;19995;-52
2024/04/15 03:29:21;;;;;;;1.05;0.60;;;;;;;;;;5484073;26;20012;-50
2024/04/15 03:31:46;;;;;;;1.95;0.90;;;;;;;;;;5483700;26;19998;-52
2024/04/15 03:34:11;;;;;;;2.97;0.98;;;;;;;;;;5484467;26;20074;-50
2024/04/15 03:36:37;;;;;;;2.28;0.68;;;;;;;;;;5484234;26;20033;-50
2024/04/15 03:39:03;;;;;;;2.50;0.85;;;;;;;;;;5482757;26;20006;-54
2024/04/15 03:41:28;;;;;;;1.75;0.70;;;;;;;;;;5483896;26;20002;-51
2024/04/15 03:43:53;;;;;;;1.73;0.80;;;;;;;;;;5483701;26;20016;-50
2024/04/15 03:46:19;;;;;;;2.85;0.90;;;;;;;;;;5483717;26;19994;-53
2024/04/15 03:48:44;;;;;;;3.40;0.88;;;;;;;;;;5481843;26;20352;-53
2024/04/15 03:51:09;;;;;;;2.95;0.60;;;;;;;;;;5483872;26;20018;-49
2024/04/15 03:53:35;;;;;;;1.67;0.70;;;;;;;;;;5483648;26;20005;-54
2024/04/15 03:56:00;;;;;;;3.30;0.90;;;;;;;;;;5483220;26;20529;-58
2024/04/15 03:58:26;;;;;;;2.75;0.90;;;;;;;;;;5482962;26;19994;-58
2024/04/15 04:00:51;;;;;;;2.80;0.82;;;;;;;;;;5483543;26;19998;-55
2024/04/15 04:03:17;;;;;;;2.35;0.90;;;;;;;;;;5494323;26;20026;-57
2024/04/15 04:05:42;;;;;;;1.67;0.60;;;;;;;;;;5483858;26;19998;-57
2024/04/15 04:08:08;;;;;;;2.03;0.70;;;;;;;;;;5482826;26;20016;-49
2024/04/15 04:10:33;;;;;;;2.78;0.75;;;;;;;;;;5483078;26;20085;-51
2024/04/15 04:12:59;;;;;;;2.25;0.98;;;;;;;;;;5482893;26;20002;-54
2024/04/15 04:15:25;;;;;;;2.10;0.82;;;;;;;;;;5483458;26;20074;-50
2024/04/15 04:17:50;;;;;;;3.67;0.95;;;;;;;;;;5482722;26;20009;-53
2024/04/15 04:20:15;;;;;;;2.55;0.82;;;;;;;;;;5482503;26;20006;-48
2024/04/15 04:22:41;;;;;;;2.70;1.08;;;;;;;;;;5483210;26;20009;-51
2024/04/15 04:25:06;;;;;;;2.20;0.70;;;;;;;;;;5483403;26;20005;-50
2024/04/15 04:27:32;;;;;;;2.75;0.80;;;;;;;;;;5482134;26;20006;-51
2024/04/15 04:29:57;;;;;;;2.20;0.80;;;;;;;;;;5483062;26;20018;-52
2024/04/15 04:32:22;;;;;;;1.63;0.80;;;;;;;;;;5482778;26;20002;-51
2024/04/15 04:34:48;;;;;;;2.13;0.98;;;;;;;;;;5485168;26;20425;-49
2024/04/15 04:37:14;;;;;;;2.75;0.77;;;;;;;;;;5486632;26;20555;-54
2024/04/15 04:39:39;;;;;;;2.80;0.70;;;;;;;;;;5473792;26;20337;-52
2024/04/15 04:42:05;;;;;;;1.63;0.70;;;;;;;;;;5485993;26;20013;-50
2024/04/15 04:44:30;;;;;;;2.22;0.63;;;;;;;;;;5486141;26;20009;-51
2024/04/15 04:46:55;;;;;;;1.30;0.70;;;;;;;;;;5486363;26;20391;-50
2024/04/15 04:49:21;;;;;;;2.00;0.70;;;;;;;;;;5485976;26;19998;-50
2024/04/15 04:51:46;;;;;;;1.48;0.55;;;;;;;;;;5485965;26;19994;-52
2024/04/15 04:54:14;;;;;;;2.40;0.77;;;;;;;;;;5486203;26;20006;-49
2024/04/15 04:56:39;;;;;;;2.58;0.82;;;;;;;;;;5486521;26;20009;-52
2024/04/15 04:59:05;;;;;;;1.08;0.50;;;;;;;;;;5485162;26;20318;-53
2024/04/15 05:01:30;;;;;;;3.08;1.17;;;;;;;;;;5486232;26;19990;-49
2024/04/15 05:03:56;;;;;;;2.15;0.77;;;;;;;;;;5486316;26;19994;-54
2024/04/15 05:06:21;;;;;;;1.98;0.80;;;;;;;;;;5485551;26;20012;-55
2024/04/15 05:08:47;;;;;;;2.97;0.80;;;;;;;;;;5485908;26;19998;-51
2024/04/15 05:11:12;;;;;;;2.33;0.88;;;;;;;;;;5485988;26;20009;-53
2024/04/15 05:13:38;;;;;;;2.05;0.80;;;;;;;;;;5485301;26;20009;-50
2024/04/15 05:16:07;;;;;;;3.53;0.88;;;;;;;;;;5484511;26;20009;-50
2024/04/15 05:18:34;;;;;;;1.88;0.65;;;;;;;;;;5485857;26;20708;-49
2024/04/15 05:21:00;;;;;;;1.90;0.80;;;;;;;;;;5451348;26;20348;-51
2024/04/15 05:23:26;;;;;;;2.17;0.80;;;;;;;;;;5485523;26;19998;-50
2024/04/15 05:25:51;;;;;;;2.45;0.85;;;;;;;;;;5485936;26;20041;-52
2024/04/15 05:28:16;;;;;;;2.55;0.75;;;;;;;;;;5485774;26;20444;-51
2024/04/15 05:30:42;;;;;;;1.85;0.70;;;;;;;;;;5485011;26;20017;-51
2024/04/15 05:33:07;;;;;;;1.73;0.70;;;;;;;;;;5485671;26;19994;-52
2024/04/15 05:35:32;;;;;;;3.00;0.90;;;;;;;;;;5486068;26;20002;-51
2024/04/15 05:37:58;;;;;;;2.30;0.80;;;;;;;;;;5485281;26;20006;-49
2024/04/15 05:40:23;;;;;;;1.73;0.80;;;;;;;;;;5485519;26;20010;-49
2024/04/15 05:42:49;;;;;;;2.83;0.80;;;;;;;;;;5485615;26;20030;-54
2024/04/15 05:45:14;;;;;;;1.80;0.80;;;;;;;;;;5484756;26;19998;-53
2024/04/15 05:47:39;;;;;;;2.70;0.95;;;;;;;;;;5485211;26;20013;-50
2024/04/15 05:50:05;;;;;;;3.08;0.60;;;;;;;;;;5485441;26;20458;-49
2024/04/15 05:52:30;;;;;;;2.08;0.70;;;;;;;;;;5485190;26;20598;-51
2024/04/15 05:54:56;;;;;;;2.88;0.93;;;;;;;;;;5484761;26;20006;-52
2024/04/15 05:57:22;;;;;;;4.35;1.08;;;;;;;;;;5485522;26;20392;-51
2024/04/15 05:59:47;;;;;;;1.83;0.70;;;;;;;;;;5485529;26;20071;-51
2024/04/15 06:02:13;;;;;;;2.78;0.90;;;;;;;;;;5484296;26;20367;-51
2024/04/15 06:04:38;;;;;;;2.42;0.90;;;;;;;;;;5485098;26;20017;-58
2024/04/15 06:07:04;;;;;;;3.80;1.00;;;;;;;;;;5485514;26;20075;-60
2024/04/15 06:09:30;;;;;;;1.77;0.80;;;;;;;;;;5483378;26;19994;-58
2024/04/15 06:11:56;;;;;;;4.18;0.95;;;;;;;;;;5484716;26;20002;-57
2024/04/15 06:14:22;;;;;;;2.83;0.85;;;;;;;;;;5485074;26;19994;-59
2024/04/15 06:16:52;;;;;;;2.60;1.00;;;;;;;;;;5484746;26;20009;-57
2024/04/15 06:19:17;;;;;;;1.98;0.70;;;;;;;;;;5484452;26;20319;-60
2024/04/15 06:21:43;;;;;;;3.70;1.00;;;;;;;;;;5485311;26;20005;-59
2024/04/15 06:24:09;;;;;;;3.88;1.10;;;;;;;;;;5481095;26;20342;-59
2024/04/15 06:26:34;;;;;;;2.05;0.70;;;;;;;;;;5484469;26;20002;-59
2024/04/15 06:29:01;;;;;;;2.53;0.90;;;;;;;;;;5484728;26;19998;-57
2024/04/15 06:31:26;;;;;;;1.98;0.80;;;;;;;;;;5484534;26;20002;-60
2024/04/15 06:33:52;;;;;;;2.13;0.80;;;;;;;;;;5476213;26;20003;-55
2024/04/15 06:36:17;;;;;;;2.55;0.90;;;;;;;;;;5479689;26;20038;-61
2024/04/15 06:38:42;;;;;;;4.10;0.90;;;;;;;;;;5484704;26;20063;-58
2024/04/15 06:41:08;;;;;;;2.83;1.13;;;;;;;;;;5483551;26;20014;-58
2024/04/15 06:43:33;;;;;;;3.83;1.08;;;;;;;;;;5482176;26;19994;-56
2024/04/15 06:45:58;;;;;;;2.60;1.13;;;;;;;;;;5485079;26;20075;-60
2024/04/15 06:48:24;;;;;;;2.45;0.88;;;;;;;;;;5484550;26;20005;-55
2024/04/15 06:50:50;;;;;;;2.47;0.80;;;;;;;;;;5483905;26;20063;-60
2024/04/15 06:53:15;;;;;;;3.00;0.90;;;;;;;;;;5483810;26;19994;-59
2024/04/15 06:55:42;;;;;;;2.72;0.90;;;;;;;;;;5483110;26;20434;-57
2024/04/15 06:58:07;;;;;;;3.63;1.40;;;;;;;;;;5480221;26;19994;-59
2024/04/15 07:00:32;;;;;;;2.63;0.80;;;;;;;;;;5483297;26;20453;-59
2024/04/15 07:02:58;;;;;;;2.63;0.80;;;;;;;;;;5483163;26;20432;-61
2024/04/15 07:05:23;;;;;;;1.88;0.88;;;;;;;;;;5483369;26;19990;-60
2024/04/15 07:07:49;;;;;;;3.17;0.80;;;;;;;;;;5480358;26;20025;-60
2024/04/15 07:10:14;;;;;;;2.28;0.85;;;;;;;;;;5470376;26;20005;-60
2024/04/15 07:12:39;;;;;;;1.88;0.80;;;;;;;;;;5477513;26;20026;-61
2024/04/15 07:15:05;;;;;;;1.52;0.70;;;;;;;;;;5477325;26;19994;-56
2024/04/15 07:17:33;;;;;;;2.28;0.90;;;;;;;;;;5383241;26;20152;-57
2024/04/15 07:20:03;;;;;;;1.95;0.68;;;;;;;;;;5301639;26;20567;-58
2024/04/15 07:22:33;;;;;;;2.63;0.90;;;;;;;;;;5306839;26;20152;-58
2024/04/15 07:25:02;;;;;;;2.47;0.63;;;;;;;;;;5298903;26;20136;-58
2024/04/15 07:27:34;;;;;;;2.35;0.80;;;;;;;;;;5286093;26;20155;-58
2024/04/15 07:30:02;;;;;;;1.63;0.80;;;;;;;;;;5301089;26;20148;-58
2024/04/15 07:32:32;;;;;;;2.15;0.70;;;;;;;;;;5306758;26;20216;-58
2024/04/15 07:35:04;;;;;;;2.10;0.70;;;;;;;;;;5328511;26;20159;-57
2024/04/15 07:37:34;;;;;;;2.45;0.80;;;;;;;;;;5318286;26;20154;-58
2024/04/15 07:41:14;;;;;;;1.55;0.63;;;;;;;;;;5293760;26;20989;-58
2024/04/15 07:43:48;;;;;;;1.77;0.80;;;;;;;;;;5321578;26;20207;-58
2024/04/15 07:46:16;;;;;;;1.75;0.60;;;;;;;;;;5295424;26;20455;-57
2024/04/15 07:48:43;;;;;;;2.53;0.60;;;;;;;;;;5295477;26;20140;-58
2024/04/15 07:51:10;;;;;;;1.67;0.70;;;;;;;;;;5284783;26;20471;-57
2024/04/15 07:53:36;;;;;;;1.65;0.68;;;;;;;;;;5274435;26;20140;-57
2024/04/15 07:56:02;;;;;;;1.48;0.60;;;;;;;;;;5295292;26;20230;-59
2024/04/15 07:58:34;;;;;;;1.35;0.60;;;;;;;;;;5294543;26;20161;-56
2024/04/15 08:01:00;;;;;;;1.65;0.60;;;;;;;;;;5325820;26;20127;-59
2024/04/15 08:03:29;;;;;;;1.65;0.50;;;;;;;;;;5289838;26;20456;-58
2024/04/15 08:05:58;;;;;;;1.65;0.70;;;;;;;;;;5339102;26;20207;-58
2024/04/15 08:08:25;;;;;;;2.63;0.70;;;;;;;;;;5295681;26;20142;-57
2024/04/15 08:10:52;;;;;;;0.93;0.50;;;;;;;;;;5295972;26;20493;-56
2024/04/15 08:13:19;;;;;;;0.80;0.40;;;;;;;;;;5260274;26;20141;-58
2024/04/15 08:15:46;;;;;;;3.28;0.73;;;;;;;;;;5296028;26;20916;-57
2024/04/15 08:18:14;;;;;;;1.40;0.60;;;;;;;;;;5294136;26;20143;-58
2024/04/15 08:20:40;;;;;;;1.83;0.60;;;;;;;;;;5322488;26;20134;-58
2024/04/15 08:23:09;;;;;;;1.08;0.40;;;;;;;;;;5294811;26;20170;-57
2024/04/15 08:25:37;;;;;;;0.65;0.40;;;;;;;;;;5294143;26;20147;-58
2024/04/15 08:28:03;;;;;;;0.60;0.35;;;;;;;;;;5322435;26;20146;-57
2024/04/15 08:30:30;;;;;;;1.65;0.60;;;;;;;;;;5296294;26;20140;-54
2024/04/15 08:32:57;;;;;;;0.82;0.50;;;;;;;;;;5291730;26;20130;-51
2024/04/15 08:35:27;;;;;;;1.45;0.60;;;;;;;;;;5315872;26;20213;-52
2024/04/15 08:37:54;;;;;;;0.98;0.52;;;;;;;;;;5289568;26;20144;-51
2024/04/15 08:40:25;;;;;;;1.40;0.68;;;;;;;;;;5316729;26;20132;-57
2024/04/15 08:42:57;;;;;;;1.60;0.50;;;;;;;;;;5290953;26;20268;-57
2024/04/15 08:45:27;;;;;;;2.42;0.60;;;;;;;;;;5294782;26;20448;-57
2024/04/15 08:47:56;;;;;;;0.80;0.50;;;;;;;;;;5284525;26;20133;-57
2024/04/15 08:50:25;;;;;;;1.85;0.65;;;;;;;;;;5296557;26;20162;-58
2024/04/15 08:52:56;;;;;;;1.25;0.47;;;;;;;;;;5281791;26;20140;-59
2024/04/15 08:55:25;;;;;;;1.45;0.60;;;;;;;;;;5280191;26;20176;-57
2024/04/15 08:57:55;;;;;;;1.40;0.60;;;;;;;;;;5274156;26;20661;-56
2024/04/15 09:00:26;;;;;;;1.30;0.40;;;;;;;;;;5272961;26;20191;-58
2024/04/15 09:02:57;;;;;;;1.95;0.57;;;;;;;;;;5290268;26;20137;-58
2024/04/15 09:05:24;;;;;;;2.22;0.52;;;;;;;;;;5279283;26;20131;-57
2024/04/15 09:07:56;;;;;;;1.05;0.50;;;;;;;;;;5264834;26;20149;-58
2024/04/15 09:10:27;;;;;;;2.90;0.80;;;;;;;;;;5287415;26;20223;-59
2024/04/15 09:12:56;;;;;;;1.02;0.55;;;;;;;;;;5289915;26;20126;-59
2024/04/15 09:16:00;;;;;;;2.53;0.57;;;;;;;;;;5281782;26;20147;-58
2024/04/15 09:18:29;;;;;;;1.88;0.60;;;;;;;;;;5288693;26;20144;-59
2024/04/15 09:21:00;;;;;;;1.98;0.50;;;;;;;;;;5295207;26;20208;-57
2024/04/15 09:23:30;;;;;;;1.80;0.65;;;;;;;;;;5314600;26;20167;-58
2024/04/15 09:25:59;;;;;;;1.05;0.60;;;;;;;;;;5299654;26;20140;-57
2024/04/15 09:28:27;;;;;;;2.30;0.65;;;;;;;;;;5287473;26;20136;-58
2024/04/15 09:30:57;;;;;;;2.58;0.50;;;;;;;;;;5286426;26;20300;-58
2024/04/15 09:33:28;;;;;;;2.47;0.40;;;;;;;;;;5289808;26;20176;-58
2024/04/15 09:35:55;;;;;;;2.08;0.60;;;;;;;;;;5276520;26;21147;-56
2024/04/15 09:38:22;;;;;;;2.58;0.70;;;;;;;;;;5294100;26;20149;-57
2024/04/15 09:40:50;;;;;;;1.52;0.55;;;;;;;;;;5295231;26;20219;-58
2024/04/15 09:43:16;;;;;;;2.80;0.80;;;;;;;;;;5291243;26;20173;-58
2024/04/15 09:45:46;;;;;;;1.35;0.60;;;;;;;;;;5322759;26;20490;-57
2024/04/15 09:48:22;;;;;;;1.08;0.55;;;;;;;;;;5289500;26;20152;-58
2024/04/15 09:50:55;;;;;;;2.35;0.70;;;;;;;;;;5322651;26;20217;-58
2024/04/15 09:53:41;;;;;;;3.03;0.70;;;;;;;;;;5287992;26;20155;-58
2024/04/15 09:56:28;;;;;;;1.58;0.50;;;;;;;;;;5311574;26;20210;-58
2024/04/15 09:58:58;;;;;;;3.50;0.55;;;;;;;;;;5294397;26;20136;-58
2024/04/15 10:01:32;;;;;;;2.25;0.50;;;;;;;;;;5294691;26;20502;-58
2024/04/15 10:04:04;;;;;;;1.83;0.60;;;;;;;;;;5295493;26;20455;-57
2024/04/15 10:06:51;;;;;;;1.23;0.50;;;;;;;;;;5326191;26;20187;-58
2024/04/15 10:09:19;;;;;;;1.88;0.80;;;;;;;;;;5295731;26;20571;-56
2024/04/15 10:11:50;;;;;;;2.22;0.55;;;;;;;;;;5295230;26;20126;-58
2024/04/15 10:14:18;;;;;;;2.33;0.75;;;;;;;;;;5316693;26;20723;-58
2024/04/15 10:16:48;;;;;;;3.05;0.82;;;;;;;;;;5314885;26;20156;-58
2024/04/15 10:19:36;;;;;;;2.03;0.57;;;;;;;;;;5288858;26;20524;-56
2024/04/15 10:22:06;;;;;;;1.27;0.55;;;;;;;;;;5278733;26;20130;-59
2024/04/15 10:24:33;;;;;;;1.52;0.60;;;;;;;;;;5284684;26;20145;-57
2024/04/15 10:27:07;;;;;;;2.72;0.77;;;;;;;;;;5311561;26;20544;-58
2024/04/15 10:29:38;;;;;;;1.23;0.52;;;;;;;;;;5287872;26;20183;-57
2024/04/15 10:32:18;;;;;;;7.28;0.60;;;;;;;;;;5332739;26;20163;-57
2024/04/15 10:34:50;;;;;;;2.72;0.70;;;;;;;;;;5316827;26;20129;-58
2024/04/15 10:37:26;;;;;;;3.90;0.70;;;;;;;;;;5289278;26;20227;-58
2024/04/15 10:40:01;;;;;;;6.57;0.50;;;;;;;;;;5293059;26;20254;-57
2024/04/15 10:42:33;;;;;;;1.42;0.60;;;;;;;;;;5308184;26;20178;-58
2024/04/15 10:45:06;;;;;;;1.80;0.40;;;;;;;;;;5318331;26;20253;-58
2024/04/15 10:47:33;;;;;;;2.10;0.75;;;;;;;;;;5322399;26;20140;-57
2024/04/15 10:50:01;;;;;;;1.77;0.65;;;;;;;;;;5292099;26;20144;-58
2024/04/15 10:52:32;;;;;;;1.27;0.55;;;;;;;;;;5293477;26;20144;-57
2024/04/15 10:55:00;;;;;;;2.33;0.75;;;;;;;;;;5289591;26;20223;-58
2024/04/15 10:57:30;;;;;;;2.97;0.70;;;;;;;;;;5287361;26;20723;-56
2024/04/15 11:00:08;;;;;;;1.85;0.68;;;;;;;;;;5292754;26;20200;-58
2024/04/15 11:02:44;;;;;;;1.90;0.73;;;;;;;;;;5290508;26;20436;-58
2024/04/15 11:05:14;;;;;;;3.03;0.68;;;;;;;;;;5294209;26;20129;-58
2024/04/15 11:08:06;;;;;;;1.85;0.63;;;;;;;;;;5289524;26;20139;-59
2024/04/15 11:10:39;;;;;;;1.17;0.50;;;;;;;;;;5318039;26;20234;-58
2024/04/15 11:13:12;;;;;;;1.63;0.80;;;;;;;;;;5288481;26;20133;-58
2024/04/15 11:15:46;;;;;;;1.52;0.65;;;;;;;;;;5289604;26;20142;-58
2024/04/15 11:18:20;;;;;;;1.25;0.50;;;;;;;;;;5290814;26;20856;-58
2024/04/15 11:20:49;;;;;;;1.50;0.60;;;;;;;;;;5289045;26;20152;-58
2024/04/15 11:23:16;;;;;;;1.45;0.63;;;;;;;;;;5275384;26;20145;-58
2024/04/15 11:25:47;;;;;;;1.60;0.52;;;;;;;;;;5286679;26;20246;-58
2024/04/15 11:28:15;;;;;;;2.95;0.60;;;;;;;;;;5286965;26;20664;-58
2024/04/15 11:30:45;;;;;;;1.35;0.52;;;;;;;;;;5288318;26;20168;-58
2024/04/15 11:33:15;;;;;;;;;;;;;;;;;;5325309;26;20140;-60
2024/04/15 11:36:03;;;;;;;4.82;0.68;;;;;;;;;;5293298;26;20149;-57
2024/04/15 11:38:34;;;;;;;1.48;0.57;;;;;;;;;;5290339;26;20165;-58
2024/04/15 11:41:05;;;;;;;1.90;0.60;;;;;;;;;;5292306;26;20137;-57
2024/04/15 11:43:33;;;;;;;2.00;0.68;;;;;;;;;;5280096;26;20504;-58
2024/04/15 11:46:00;;;;;;;1.95;0.63;;;;;;;;;;5288581;26;20464;-58
2024/04/15 11:48:32;;;;;;;2.65;1.15;;;;;;;;;;5288213;26;20225;-58
2024/04/15 11:51:02;;;;;;;1.88;0.70;;;;;;;;;;5292391;26;20144;-58
2024/04/15 11:53:31;;;;;;;3.15;0.77;;;;;;;;;;5282297;26;20224;-58
2024/04/15 11:56:03;;;;;;;1.92;0.75;;;;;;;;;;5286860;26;20175;-58
2024/04/15 11:58:34;;;;;;;2.03;0.80;;;;;;;;;;5291796;26;20142;-59
2024/04/15 12:01:02;;;;;;;1.50;0.63;;;;;;;;;;5285954;26;20269;-58
2024/04/15 12:03:36;;;;;;;2.63;0.70;;;;;;;;;;5217537;26;20180;-56
2024/04/15 12:06:09;;;;;;;1.58;0.60;;;;;;;;;;5197373;26;20146;-59
2024/04/15 12:08:41;;;;;;;1.88;0.75;;;;;;;;;;5222931;26;20144;-58
2024/04/15 12:11:21;;;;;;;2.55;0.80;;;;;;;;;;5223394;26;20276;-57
2024/04/15 12:13:52;;;;;;;1.77;0.70;;;;;;;;;;5195732;26;20153;-58
2024/04/15 12:16:20;;;;;;;1.17;0.60;;;;;;;;;;5195170;26;20273;-58
2024/04/15 12:18:54;;;;;;;1.63;0.60;;;;;;;;;;5178555;26;20525;-59
2024/04/15 12:21:26;;;;;;;1.80;0.60;;;;;;;;;;5160995;26;20131;-58
2024/04/15 12:23:54;;;;;;;2.35;0.63;;;;;;;;;;5188125;26;20145;-58
2024/04/15 12:26:29;;;;;;;2.00;0.63;;;;;;;;;;5160548;26;20142;-60
2024/04/15 12:28:57;;;;;;;1.63;0.60;;;;;;;;;;5188990;26;20181;-58
2024/04/15 12:31:26;;;;;;;2.20;0.70;;;;;;;;;;5214547;26;20145;-59
2024/04/15 12:33:58;;;;;;;1.50;0.63;;;;;;;;;;5183385;26;20150;-58
2024/04/15 12:36:30;;;;;;;2.47;0.68;;;;;;;;;;5162039;26;20173;-58
2024/04/15 12:39:01;;;;;;;3.03;0.60;;;;;;;;;;5187433;26;20131;-57
2024/04/15 12:41:31;;;;;;;1.27;0.50;;;;;;;;;;5188117;26;20203;-57
2024/04/15 12:43:58;;;;;;;1.63;0.63;;;;;;;;;;5180446;26;20195;-59
2024/04/15 12:46:35;;;;;;;1.70;0.57;;;;;;;;;;5188813;26;20215;-58
2024/04/15 12:49:08;;;;;;;1.90;0.77;;;;;;;;;;5191648;26;20144;-58
2024/04/15 12:51:37;;;;;;;1.50;0.53;;;;;;;;;;5161911;26;20141;-58
2024/04/15 12:54:10;;;;;;;2.70;0.73;;;;;;;;;;5159269;26;20743;-61
2024/04/15 12:56:39;;;;;;;2.22;0.73;;;;;;;;;;5162292;26;20194;-59
2024/04/15 12:59:11;;;;;;;1.30;0.65;;;;;;;;;;5158567;26;20498;-61
2024/04/15 13:01:42;;;;;;;2.00;0.80;;;;;;;;;;5221889;26;20530;-60
2024/04/15 13:04:14;;;;;;;2.30;0.60;;;;;;;;;;5241578;26;20271;-57
2024/04/15 13:06:46;;;;;;;3.40;0.70;;;;;;;;;;5254531;26;20147;-58
2024/04/15 13:09:15;;;;;;;1.40;0.47;;;;;;;;;;5225725;26;20160;-59
2024/04/15 13:11:41;;;;;;;1.88;0.60;;;;;;;;;;5225820;26;20134;-58
2024/04/15 13:14:10;;;;;;;3.75;0.70;;;;;;;;;;5226077;26;20176;-57
2024/04/15 13:16:37;;;;;;;3.05;0.57;;;;;;;;;;5255846;26;20470;-59
2024/04/15 13:19:04;;;;;;;1.63;0.65;;;;;;;;;;5291552;26;20131;-57
2024/04/15 13:21:30;;;;;;;1.80;0.80;;;;;;;;;;5295439;26;20217;-57
2024/04/15 13:23:57;;;;;;;2.15;0.90;;;;;;;;;;5293032;26;20144;-58
2024/04/15 13:26:29;;;;;;;1.52;0.60;;;;;;;;;;5288763;26;20467;-58
2024/04/15 13:28:56;;;;;;;2.38;0.80;;;;;;;;;;5308604;26;20217;-59
2024/04/15 13:31:26;;;;;;;1.85;0.60;;;;;;;;;;5302696;26;20212;-57
2024/04/15 13:33:54;;;;;;;2.63;0.60;;;;;;;;;;5299737;26;20221;-58
2024/04/15 13:36:22;;;;;;;2.03;0.75;;;;;;;;;;5293298;26;20182;-58
2024/04/15 13:38:50;;;;;;;1.27;0.70;;;;;;;;;;5302032;26;20124;-58
2024/04/15 13:41:19;;;;;;;1.58;0.60;;;;;;;;;;5294714;26;20204;-58
2024/04/15 13:43:46;;;;;;;3.08;0.70;;;;;;;;;;5294377;26;20169;-57
2024/04/15 13:46:13;;;;;;;1.67;0.60;;;;;;;;;;5294486;26;20264;-58
2024/04/15 13:48:45;;;;;;;1.42;0.60;;;;;;;;;;5294698;26;20514;-58
2024/04/15 13:51:15;;;;;;;1.88;0.63;;;;;;;;;;5319724;26;20167;-57
2024/04/15 13:53:42;;;;;;;1.75;0.70;;;;;;;;;;5295461;26;20141;-57
2024/04/15 13:56:12;;;;;;;1.92;0.60;;;;;;;;;;5286431;26;20685;-58
2024/04/15 13:58:46;;;;;;;2.10;0.70;;;;;;;;;;5290647;26;20144;-58
2024/04/15 14:01:18;;;;;;;2.00;0.63;;;;;;;;;;5285392;26;20164;-58
2024/04/15 14:03:48;;;;;;;2.22;0.65;;;;;;;;;;5323702;26;20714;-61
2024/04/15 14:06:18;;;;;;;1.25;0.50;;;;;;;;;;5282428;26;20129;-56
2024/04/15 14:08:50;;;;;;;3.22;0.60;;;;;;;;;;5294986;26;20149;-57
2024/04/15 14:11:21;;;;;;;1.88;0.68;;;;;;;;;;5295389;26;20146;-58
2024/04/15 14:13:58;;;;;;;0.95;0.50;;;;;;;;;;5322463;26;20136;-58
2024/04/15 14:16:34;;;;;;;1.58;0.60;;;;;;;;;;5281855;26;20140;-58
2024/04/15 14:19:01;;;;;;;12.30;0.60;;;;;;;;;;5286445;26;20350;-58
2024/04/15 14:21:30;;;;;;;1.35;0.60;;;;;;;;;;5323522;26;20468;-58
2024/04/15 14:24:05;;;;;;;1.83;0.70;;;;;;;;;;5295447;26;20154;-58
2024/04/15 14:26:37;;;;;;;1.48;0.60;;;;;;;;;;5287919;26;20236;-57
2024/04/15 14:29:07;;;;;;;1.40;0.57;;;;;;;;;;5317806;26;20544;-59
2024/04/15 14:31:40;;;;;;;1.40;0.60;;;;;;;;;;5290757;26;20179;-58
2024/04/15 14:34:11;;;;;;;1.90;0.80;;;;;;;;;;5294241;26;20230;-58
2024/04/15 14:36:41;;;;;;;1.10;0.50;;;;;;;;;;5290744;26;20201;-58
2024/04/15 14:39:17;;;;;;;0.80;0.43;;;;;;;;;;5290204;26;20140;-58
2024/04/15 14:41:48;;;;;;;1.55;0.60;;;;;;;;;;5291568;26;20140;-58
2024/04/15 14:44:48;;;;;;;1.48;0.60;;;;;;;;;;5319243;26;20270;-58
2024/04/15 14:47:22;;;;;;;2.75;0.50;;;;;;;;;;5306496;26;20204;-58
2024/04/15 14:49:49;;;;;;;1.92;0.60;;;;;;;;;;5287794;26;20151;-57